Ana Sayfa
METAR-TAF:

METAR-TAF

Havaalanları :

Luanda, Angola

Enlem: 08-51S, Boylam: 013-14E, yükseklik: 74 m

Güncel hava durumu gözlemi

Rapor saat 03:00 UTC de 2 saat ve 41 dakika önce yapıldı.
Rüzgar değişken yönden 2 kt
Sıcaklık 21°C
Nem 83%
Basınç 1014 hPa
Görüş mesafesi: 4600 m
2300 ft yükseklikte çok bulutlu

METAR: FNLU 160300Z AUTO VRB02KT 4600 OVC023 21/18 Q1014

Saat: 06:41 (05:41 UTC)

Tahmin

Rapor saat 23:00 UTC de 6 saat ve 41 dakika önce yapıldı.
Ayın 16'si saat 00 UTC'den ayın 17'si saat 06 UTC'ye kadar geçerli Tahmin
Rüzgar değişken yönden 2 kt
Görüş mesafesi: 8000 m
2000 ft yükseklikte parçalı çok bulutlu
Geçici
ayın 16'si saat 02 UTC'den ayın 16'si saat 08 UTC'ye kadar
Görüş mesafesi: 3000 m
1000 ft yükseklikte çok bulutlu
Pus
Geçici
ayın 16'si saat 13 UTC'den ayın 16'si saat 19 UTC'ye kadar
Rüzgar batı/kuzeybatıdan 10 kt

TAF: FNLU 152300Z 1600/1706 VRB02KT 8000 BKN020 TEMPO 1602/1608 3000 BR OVC010 TEMPO 1613/1619 29010KT

4.000'den fazla havaalanı için hava durumu gözlemleri ve tahminleri (METAR ve TAF raporları).

Kullanılabilir istasyonlar harita üzerinde sarı ve kırmızı noktalarla gösterilir.

İstasyonun adını görmek için fareyi noktanın üzerinde gezdirin.

Sonrasında hava gözlem ve tahminlerini görmek için tıklayın.

Haritayı değiştirmek için: yaklaştırmak için siyah artı işaretli yeşil düğmeye ve uzaklaştırmak için de eksi işaretli düğmeye hızla tıklayın; bitişik haritalar için yeşil okları kullanın.


METAR-TAF: